Time;durP1;ratioP1;P1;durP2;ratioP2;P2;SDS_P1;SDS_P2;PMS_P1;PMS_P2;Temp;Humidity;BMP_temperature;BMP_pressure;BME280_temperature;BME280_humidity;BME280_pressure;Samples;Min_cycle;Max_cycle;Signal;HPM_P1;HPM_P2
2022/08/03 00:00:20;;;;;;;;;;;;;;;30.34;38.53;94309.06;5047889;28;7235;-63
2022/08/03 00:02:45;;;;;;;;;;;;;;;30.32;38.35;94314.41;5053991;28;8731;-62
2022/08/03 00:05:11;;;;;;;;;;;;;;;30.32;38.84;94308.84;5047096;28;8412;-63
2022/08/03 00:07:39;;;;;;;;;;;;;;;30.28;38.73;94309.16;5037707;28;9219;-63
2022/08/03 00:10:06;;;;;;;;;;;;;;;30.29;39.07;94310.66;5050752;28;7221;-62
2022/08/03 00:12:32;;;;;;;;;;;;;;;30.30;38.77;94314.16;5054192;28;9607;-63
2022/08/03 00:14:58;;;;;;;;;;;;;;;30.29;39.44;94312.69;5070194;28;7159;-62
2022/08/03 00:17:32;;;;;;;;;;;;;;;30.28;38.62;94311.19;5069150;28;6996;-62
2022/08/03 00:20:09;;;;;;;;;;;;;;;30.29;38.57;94318.22;5042859;28;9717;-63
2022/08/03 00:22:38;;;;;;;;;;;;;;;30.29;38.94;94309.91;5071234;28;7129;-62
2022/08/03 00:25:07;;;;;;;;;;;;;;;30.29;38.90;94316.19;5070099;28;7241;-62
2022/08/03 00:27:35;;;;;;;;;;;;;;;30.30;38.34;94308.59;5051653;28;6924;-62
2022/08/03 00:30:03;;;;;;;;;;;;;;;30.28;39.23;94313.94;5067915;28;7255;-62
2022/08/03 00:32:31;;;;;;;;;;;;;;;30.28;38.39;94311.19;5067554;28;7053;-63
2022/08/03 00:34:57;;;;;;;;;;;;;;;30.28;39.35;94309.16;5047492;28;7193;-63
2022/08/03 00:37:23;;;;;;;;;;;;;;;30.29;39.23;94313.44;5049206;28;7031;-62
2022/08/03 00:39:49;;;;;;;;;;;;;;;30.29;38.41;94313.44;5065854;28;7225;-63
2022/08/03 00:42:17;;;;;;;;;;;;;;;30.28;39.47;94309.16;5049931;28;7161;-63
2022/08/03 00:44:46;;;;;;;;;;;;;;;30.28;39.62;94314.69;5041584;28;7276;-63
2022/08/03 00:47:14;;;;;;;;;;;;;;;30.27;39.23;94310.47;5066797;28;8164;-63
2022/08/03 00:49:40;;;;;;;;;;;;;;;30.25;39.11;94304.72;5058645;28;9447;-62
2022/08/03 00:52:12;;;;;;;;;;;;;;;30.25;39.20;94313.03;5066870;28;7284;-63
2022/08/03 00:54:41;;;;;;;;;;;;;;;30.24;38.66;94297.66;5067295;28;7267;-63
2022/08/03 00:57:46;;;;;;;;;;;;;;;30.25;39.17;94296.38;5052820;28;8464;-62
2022/08/03 01:00:27;;;;;;;;;;;;;;;30.25;39.16;94301.19;5046037;28;7190;-63
2022/08/03 01:03:09;;;;;;;;;;;;;;;30.25;39.56;94299.16;5050604;28;7380;-62
2022/08/03 01:05:51;;;;;;;;;;;;;;;30.25;38.79;94307.50;5070551;28;9306;-63
2022/08/03 01:08:32;;;;;;;;;;;;;;;30.24;39.45;94292.13;5044542;28;7156;-62
2022/08/03 01:11:32;;;;;;;;;;;;;;;30.23;38.31;94298.22;5071413;28;7903;-63
2022/08/03 01:14:18;;;;;;;;;;;;;;;30.22;38.92;94305.78;5051635;28;7599;-62
2022/08/03 01:16:52;;;;;;;;;;;;;;;30.21;39.48;94304.28;5050355;28;7232;-63
2022/08/03 01:19:27;;;;;;;;;;;;;;;30.21;38.65;94304.28;5053091;28;7203;-63
2022/08/03 01:22:05;;;;;;;;;;;;;;;30.21;39.45;94303.56;5049012;28;7294;-63
2022/08/03 01:25:08;;;;;;;;;;;;;;;30.18;39.53;94305.38;5067753;28;7054;-62
2022/08/03 01:27:54;;;;;;;;;;;;;;;30.18;38.72;94299.84;4966038;28;7569;-63
2022/08/03 01:30:30;;;;;;;;;;;;;;;30.17;39.71;94303.88;4964892;28;9169;-62
2022/08/03 01:33:32;;;;;;;;;;;;;;;30.16;38.68;94296.88;4949145;28;7403;-63
2022/08/03 01:36:08;;;;;;;;;;;;;;;30.17;38.79;94300.38;4907156;29;7219;-62
2022/08/03 01:38:49;;;;;;;;;;;;;;;30.15;38.53;94298.16;4893002;29;7648;-63
2022/08/03 01:41:28;;;;;;;;;;;;;;;30.13;39.42;94297.94;4910153;29;7239;-63
2022/08/03 01:44:00;;;;;;;;;;;;;;;30.15;38.63;94300.16;4913032;29;7551;-62
2022/08/03 01:46:30;;;;;;;;;;;;;;;30.14;39.22;94298.69;4897928;29;9159;-62
2022/08/03 01:49:37;;;;;;;;;;;;;;;30.14;39.01;94288.34;4911309;29;8798;-63
2022/08/03 01:52:19;;;;;;;;;;;;;;;30.12;39.35;94302.03;4875376;29;10083;-62
2022/08/03 01:55:06;;;;;;;;;;;;;;;30.10;39.58;94290.69;4860218;29;7625;-63
2022/08/03 01:57:36;;;;;;;;;;;;;;;30.11;39.65;94294.97;4859842;29;7296;-62
2022/08/03 02:01:00;;;;;;;;;;;;;;;30.11;38.98;94288.69;4876171;29;7059;-62
2022/08/03 02:03:54;;;;;;;;;;;;;;;30.09;39.19;94292.00;4836530;29;7195;-62
2022/08/03 02:06:35;;;;;;;;;;;;;;;30.08;39.18;94296.06;4876665;29;7017;-62
2022/08/03 02:09:02;;;;;;;;;;;;;;;30.08;39.20;94296.06;4875781;29;6989;-63
2022/08/03 02:11:31;;;;;;;;;;;;;;;30.09;38.75;94299.56;4881862;29;7077;-62
2022/08/03 02:14:02;;;;;;;;;;;;;;;30.08;38.99;94303.66;4896921;29;7344;-62
2022/08/03 02:16:32;;;;;;;;;;;;;;;30.06;39.06;94289.59;4912735;29;7253;-63
2022/08/03 02:19:03;;;;;;;;;;;;;;;30.06;39.81;94300.69;4912855;29;7472;-62
2022/08/03 02:22:09;;;;;;;;;;;;;;;30.07;39.44;94291.06;4898046;29;7014;-61
2022/08/03 02:24:44;;;;;;;;;;;;;;;30.06;39.05;94293.06;4884933;29;7033;-60
2022/08/03 02:27:32;;;;;;;;;;;;;;;30.05;39.71;94297.16;4880980;29;9510;-60
2022/08/03 02:30:06;;;;;;;;;;;;;;;30.05;38.69;94291.59;4912515;29;7213;-61
2022/08/03 02:32:38;;;;;;;;;;;;;;;30.06;39.29;94297.91;4912423;29;7624;-61
2022/08/03 02:35:09;;;;;;;;;;;;;;;30.06;39.35;94293.06;4996454;28;7603;-60
2022/08/03 02:37:51;;;;;;;;;;;;;;;30.07;38.93;94283.47;4992400;28;7833;-60
2022/08/03 02:40:23;;;;;;;;;;;;;;;30.06;38.79;94284.75;4992249;28;7390;-60
2022/08/03 02:42:58;;;;;;;;;;;;;;;30.07;38.96;94282.72;5008847;28;9146;-60
2022/08/03 02:45:41;;;;;;;;;;;;;;;30.07;38.88;94289.03;5005554;28;7841;-60
2022/08/03 02:48:10;;;;;;;;;;;;;;;30.07;39.57;94283.47;4992143;28;9044;-60
2022/08/03 02:50:40;;;;;;;;;;;;;;;30.06;38.75;94276.44;4992657;28;7178;-61
2022/08/03 02:53:27;;;;;;;;;;;;;;;30.08;38.73;94284.94;4990613;28;7227;-60
2022/08/03 02:56:07;;;;;;;;;;;;;;;30.08;39.27;94284.94;4990437;28;7202;-60
2022/08/03 02:58:48;;;;;;;;;;;;;;;30.07;39.06;94283.47;5016943;28;8534;-60
2022/08/03 03:01:34;;;;;;;;;;;;;;;30.08;39.67;94282.19;5069349;28;9309;-61
2022/08/03 03:04:04;;;;;;;;;;;;;;;30.08;39.11;94278.69;5052812;28;7218;-60
2022/08/03 03:06:41;;;;;;;;;;;;;;;30.08;38.82;94284.22;5046990;28;8819;-60
2022/08/03 03:09:08;;;;;;;;;;;;;;;30.06;39.46;94281.97;5042924;28;7281;-61
2022/08/03 03:11:38;;;;;;;;;;;;;;;30.06;39.07;94287.53;5069090;28;8716;-60
2022/08/03 03:14:06;;;;;;;;;;;;;;;30.05;39.04;94280.50;5041333;28;7911;-61
2022/08/03 03:16:36;;;;;;;;;;;;;;;30.07;38.53;94280.72;5043680;28;8560;-60
2022/08/03 03:19:03;;;;;;;;;;;;;;;30.04;38.52;94279.00;5064818;28;7271;-61
2022/08/03 03:21:31;;;;;;;;;;;;;;;30.07;39.43;94283.47;5039147;28;7172;-61
2022/08/03 03:24:04;;;;;;;;;;;;;;;30.07;39.51;94280.72;5063975;28;7242;-60
2022/08/03 03:26:33;;;;;;;;;;;;;;;30.08;39.79;94287.72;5063958;28;7666;-61
2022/08/03 03:29:01;;;;;;;;;;;;;;;30.07;38.83;94285.50;5048336;28;7238;-60
2022/08/03 03:31:28;;;;;;;;;;;;;;;30.08;38.55;94293.28;5067230;28;6971;-60
2022/08/03 03:34:03;;;;;;;;;;;;;;;30.07;38.46;94283.47;5067386;28;7100;-60
2022/08/03 03:36:30;;;;;;;;;;;;;;;30.07;39.04;94283.47;5068782;28;7320;-60
2022/08/03 03:38:58;;;;;;;;;;;;;;;30.07;39.52;94285.50;5049525;28;7390;-61
2022/08/03 03:41:24;;;;;;;;;;;;;;;30.04;38.98;94284.56;5026042;28;8436;-60
2022/08/03 03:44:10;;;;;;;;;;;;;;;30.04;38.74;94279.00;5069413;28;7759;-60
2022/08/03 03:46:47;;;;;;;;;;;;;;;30.07;38.55;94288.28;5070905;28;7201;-60
2022/08/03 03:49:16;;;;;;;;;;;;;;;30.05;39.09;94291.59;5055467;28;7236;-60
2022/08/03 03:51:42;;;;;;;;;;;;;;;30.03;38.77;94290.66;5054446;28;7266;-61
2022/08/03 03:54:08;;;;;;;;;;;;;;;30.01;38.85;94284.91;5051347;28;7650;-61
2022/08/03 03:56:34;;;;;;;;;;;;;;;30.00;39.13;94289.72;5068261;28;7272;-62
2022/08/03 03:59:00;;;;;;;;;;;;;;;30.01;39.55;94290.47;5040979;28;7250;-63
2022/08/03 04:01:27;;;;;;;;;;;;;;;30.00;39.73;94286.94;5069361;28;6989;-63
2022/08/03 04:03:53;;;;;;;;;;;;;;;30.00;39.32;94289.72;5068019;28;7180;-63
2022/08/03 04:12:03;;;;;;;;;;;;;;;29.99;39.29;94302.09;5070828;28;8752;-63
2022/08/03 04:14:35;;;;;;;;;;;;;;;29.97;38.59;94301.16;5054130;28;9092;-63
2022/08/03 04:17:20;;;;;;;;;;;;;;;29.94;39.10;94291.88;5071085;28;9130;-63
2022/08/03 04:20:01;;;;;;;;;;;;;;;29.96;39.26;94303.19;5071779;28;8158;-63
2022/08/03 04:22:49;;;;;;;;;;;;;;;29.95;39.13;94298.19;5053751;28;7316;-63
2022/08/03 04:25:34;;;;;;;;;;;;;;;29.96;38.94;94297.63;5069250;28;7003;-63
2022/08/03 04:28:02;;;;;;;;;;;;;;;29.93;38.68;94295.94;5054889;28;7227;-63
2022/08/03 04:30:38;;;;;;;;;;;;;;;29.95;39.77;94290.59;5050926;28;7304;-63
2022/08/03 04:33:07;;;;;;;;;;;;;;;29.96;39.77;94297.63;5047527;28;9361;-63
2022/08/03 04:35:35;;;;;;;;;;;;;;;29.95;39.47;94298.91;5055269;28;8778;-63
2022/08/03 04:38:12;;;;;;;;;;;;;;;29.94;39.12;94302.97;5054084;28;9243;-63
2022/08/03 04:40:41;;;;;;;;;;;;;;;29.94;39.00;94297.44;5070696;28;6977;-63
2022/08/03 04:43:17;;;;;;;;;;;;;;;29.93;39.55;94298.69;5043737;28;6975;-63
2022/08/03 04:45:46;;;;;;;;;;;;;;;29.95;39.85;94307.22;5068713;28;8964;-63
2022/08/03 04:48:16;;;;;;;;;;;;;;;29.93;39.23;94295.94;5023235;28;7009;-63
2022/08/03 04:50:45;;;;;;;;;;;;;;;29.94;39.04;94302.97;5064903;28;7208;-63
2022/08/03 04:53:15;;;;;;;;;;;;;;;29.95;38.95;94303.72;5065667;28;7279;-63
2022/08/03 04:55:41;;;;;;;;;;;;;;;29.93;38.69;94298.69;5067107;28;9273;-63
2022/08/03 04:58:07;;;;;;;;;;;;;;;29.93;38.97;94311.84;5048270;28;8344;-63
2022/08/03 05:00:33;;;;;;;;;;;;;;;29.94;39.69;94305.75;5048986;28;7314;-63
2022/08/03 05:03:02;;;;;;;;;;;;;;;29.93;38.76;94307.03;5065676;28;9155;-63
2022/08/03 05:05:28;;;;;;;;;;;;;;;29.94;38.80;94305.75;5065783;28;7205;-63
2022/08/03 05:07:55;;;;;;;;;;;;;;;29.96;38.81;94310.75;5041117;28;9454;-63
2022/08/03 05:10:21;;;;;;;;;;;;;;;29.96;39.28;94305.19;5049477;28;7256;-63
2022/08/03 05:12:47;;;;;;;;;;;;;;;29.96;39.58;94308.72;5065757;28;7971;-63
2022/08/03 05:15:14;;;;;;;;;;;;;;;29.97;39.08;94307.41;5049170;28;8763;-63
2022/08/03 05:17:42;;;;;;;;;;;;;;;29.96;39.36;94310.75;5041156;28;6996;-63
2022/08/03 05:20:09;;;;;;;;;;;;;;;29.95;38.48;94312.03;5048472;28;7047;-63
2022/08/03 05:22:35;;;;;;;;;;;;;;;29.94;38.97;94311.28;5066459;28;7071;-63
2022/08/03 05:25:02;;;;;;;;;;;;;;;29.91;39.66;94311.63;5065678;28;9244;-63
2022/08/03 05:27:28;;;;;;;;;;;;;;;29.91;38.98;94311.63;5048049;28;7100;-63
2022/08/03 05:29:56;;;;;;;;;;;;;;;29.92;39.72;94318.66;5048304;28;7216;-63
2022/08/03 05:32:24;;;;;;;;;;;;;;;29.90;39.23;94316.44;5065368;28;7241;-63
2022/08/03 05:34:50;;;;;;;;;;;;;;;29.90;38.55;94321.25;5046191;28;9163;-63
2022/08/03 05:37:19;;;;;;;;;;;;;;;29.88;39.15;94316.25;5066315;28;9373;-63
2022/08/03 05:39:45;;;;;;;;;;;;;;;29.88;38.86;94327.34;5066005;28;6990;-63
2022/08/03 05:42:14;;;;;;;;;;;;;;;29.88;39.58;94321.78;5040255;28;7058;-63
2022/08/03 05:44:41;;;;;;;;;;;;;;;29.88;39.34;94332.13;5041051;28;7076;-63
2022/08/03 05:47:07;;;;;;;;;;;;;;;29.90;38.72;94324.00;5040989;28;7253;-63
2022/08/03 05:49:33;;;;;;;;;;;;;;;29.90;39.29;94324.75;5066742;28;7453;-63
2022/08/03 05:51:59;;;;;;;;;;;;;;;29.89;38.61;94325.28;5049052;28;9101;-63
2022/08/03 05:54:25;;;;;;;;;;;;;;;29.87;38.87;94314.75;5066584;28;7292;-63
2022/08/03 05:57:04;;;;;;;;;;;;;;;29.89;38.73;94320.47;5069748;28;7217;-63
2022/08/03 05:59:37;;;;;;;;;;;;;;;29.87;39.29;94319.53;5053294;28;7026;-63
2022/08/03 06:02:06;;;;;;;;;;;;;;;29.88;39.04;94318.25;5043843;28;7122;-63
2022/08/03 06:04:42;;;;;;;;;;;;;;;29.87;38.94;94319.53;5070664;28;7261;-63
2022/08/03 06:07:22;;;;;;;;;;;;;;;29.88;39.39;94318.25;5070418;28;7260;-63
2022/08/03 06:09:49;;;;;;;;;;;;;;;29.87;38.96;94319.53;5052090;28;7048;-63
2022/08/03 06:12:15;;;;;;;;;;;;;;;29.87;39.18;94320.28;5045619;28;7353;-63
2022/08/03 06:14:41;;;;;;;;;;;;;;;29.86;39.13;94324.34;5046491;28;9572;-63
2022/08/03 06:17:08;;;;;;;;;;;;;;;29.87;39.18;94320.28;5049929;28;7249;-63
2022/08/03 06:19:34;;;;;;;;;;;;;;;29.85;39.20;94325.63;5053068;28;7265;-63
2022/08/03 06:22:03;;;;;;;;;;;;;;;29.86;38.89;94326.38;5050022;28;9436;-63
2022/08/03 06:24:37;;;;;;;;;;;;;;;29.86;39.67;94318.81;5051504;28;6978;-63
2022/08/03 06:27:05;;;;;;;;;;;;;;;29.86;39.07;94324.34;5042875;28;7075;-63
2022/08/03 06:29:34;;;;;;;;;;;;;;;29.86;39.91;94318.81;5047388;28;7229;-63
2022/08/03 06:32:03;;;;;;;;;;;;;;;29.87;39.39;94328.59;5068671;28;9060;-63
2022/08/03 06:34:29;;;;;;;;;;;;;;;29.87;40.04;94325.84;5043566;28;9662;-63
2022/08/03 06:37:00;;;;;;;;;;;;;;;29.89;39.48;94333.59;5065672;28;9137;-63
2022/08/03 06:39:28;;;;;;;;;;;;;;;29.88;38.92;94332.88;5042245;28;7250;-63
2022/08/03 06:41:54;;;;;;;;;;;;;;;29.87;39.81;94328.59;5040757;28;7260;-63
2022/08/03 06:44:21;;;;;;;;;;;;;;;29.87;39.43;94331.38;5039646;28;7206;-63
2022/08/03 06:46:49;;;;;;;;;;;;;;;29.87;38.88;94325.84;5068959;28;7262;-63
2022/08/03 06:49:18;;;;;;;;;;;;;;;29.86;39.00;94323.59;5069311;28;7008;-63
2022/08/03 06:51:56;;;;;;;;;;;;;;;29.87;39.65;94331.38;5068686;28;7269;-63
2022/08/03 06:54:35;;;;;;;;;;;;;;;29.86;39.38;94324.34;5046151;28;7139;-63
2022/08/03 06:57:01;;;;;;;;;;;;;;;29.87;39.29;94330.63;5052438;28;9138;-63
2022/08/03 06:59:29;;;;;;;;;;;;;;;29.84;39.06;94328.94;5045078;28;7060;-63
2022/08/03 07:01:57;;;;;;;;;;;;;;;29.84;39.58;94338.00;5061107;28;7196;-63
2022/08/03 07:04:55;;;;;;;;;;;;;;;29.86;39.44;94341.00;5053342;28;7071;-63
2022/08/03 07:07:20;;;;;;;;;;;;;;;29.84;39.62;94332.44;4980120;28;9154;-63
2022/08/03 07:09:56;;;;;;;;;;;;;;;29.85;39.53;94344.28;4963531;28;7180;-63
2022/08/03 07:12:26;;;;;;;;;;;;;;;29.85;38.96;94339.50;4982153;28;7337;-63
2022/08/03 07:14:54;;;;;;;;;;;;;;;29.85;39.53;94345.03;4974830;28;8749;-63
2022/08/03 07:17:33;;;;;;;;;;;;;;;29.84;39.17;94345.59;4968977;28;7247;-63
2022/08/03 07:20:09;;;;;;;;;;;;;;;29.84;40.09;94342.81;4984075;28;7186;-63
2022/08/03 07:23:09;;;;;;;;;;;;;;;29.85;39.34;94345.03;4988016;28;7139;-63
2022/08/03 07:25:37;;;;;;;;;;;;;;;29.83;39.83;94350.38;4915505;29;9248;-63
2022/08/03 07:28:05;;;;;;;;;;;;;;;29.84;39.07;94340.75;4898790;29;7126;-63
2022/08/03 07:30:36;;;;;;;;;;;;;;;29.84;39.82;94342.81;4914328;29;7074;-63
2022/08/03 07:33:04;;;;;;;;;;;;;;;29.84;39.09;94340.75;4898784;29;7201;-63
2022/08/03 07:35:51;;;;;;;;;;;;;;;29.85;38.87;94347.06;4915220;29;7223;-63
2022/08/03 07:38:17;;;;;;;;;;;;;;;29.85;39.37;94349.84;4898941;29;7325;-63
2022/08/03 07:40:43;;;;;;;;;;;;;;;29.85;40.00;94344.28;4897744;29;7513;-63
2022/08/03 07:43:20;;;;;;;;;;;;;;;29.84;39.23;94340.03;4929917;28;9118;-63
2022/08/03 07:46:16;;;;;;;;;;;;;;;29.84;39.32;94349.09;4964177;28;8826;-63
2022/08/03 07:48:45;;;;;;;;;;;;;;;29.83;39.00;94347.63;4907337;29;8471;-63
2022/08/03 07:52:46;;;;;;;;;;;;;;;29.84;39.30;94348.38;4901622;29;7082;-63
2022/08/03 07:54:48;;;;;;;;;;;;;;;29.85;39.70;94344.28;4902291;29;7249;-63
2022/08/03 07:57:13;;;;;;;;;;;;;;;29.84;39.17;94351.84;4888447;29;7325;-63
2022/08/03 08:00:17;;;;;;;;;;;;;;;29.83;40.01;94342.06;4903577;29;7211;-63
2022/08/03 08:02:49;;;;;;;;;;;;;;;29.84;38.80;94349.09;4922161;29;9267;-63
2022/08/03 08:05:18;;;;;;;;;;;;;;;29.84;39.41;94346.31;4923111;29;9469;-63
2022/08/03 08:07:44;;;;;;;;;;;;;;;29.85;39.42;94350.59;4922352;29;7179;-63
2022/08/03 08:10:46;;;;;;;;;;;;;;;29.85;39.46;94345.03;4907829;29;9325;-63
2022/08/03 08:13:12;;;;;;;;;;;;;;;29.84;39.16;94340.75;4842642;29;7020;-63
2022/08/03 08:15:38;;;;;;;;;;;;;;;29.84;39.69;94343.53;4845653;29;6997;-63
2022/08/03 08:18:04;;;;;;;;;;;;;;;29.84;39.27;94343.53;4844321;29;6875;-63
2022/08/03 08:20:47;;;;;;;;;;;;;;;29.84;39.11;94342.81;4844510;29;7046;-63
2022/08/03 08:23:21;;;;;;;;;;;;;;;29.86;39.38;94343.78;4842144;29;7176;-63
2022/08/03 08:25:48;;;;;;;;;;;;;;;29.86;40.00;94348.56;4872270;29;7105;-63
2022/08/03 08:28:20;;;;;;;;;;;;;;;29.86;38.97;94346.53;4878986;29;8039;-63
2022/08/03 08:30:47;;;;;;;;;;;;;;;29.86;39.80;94354.09;4888944;29;7458;-63
2022/08/03 08:33:43;;;;;;;;;;;;;;;29.85;38.82;94353.34;4891607;29;9231;-63
2022/08/03 08:36:10;;;;;;;;;;;;;;;29.86;39.19;94343.03;4857229;29;7097;-63
2022/08/03 08:38:37;;;;;;;;;;;;;;;29.84;40.10;94343.53;4912082;29;7211;-63
2022/08/03 08:41:05;;;;;;;;;;;;;;;29.86;39.15;94340.25;4894408;29;9101;-63
2022/08/03 08:43:33;;;;;;;;;;;;;;;29.87;39.55;94342.47;4909165;29;9051;-63
2022/08/03 08:46:00;;;;;;;;;;;;;;;29.86;38.81;94341.00;4909750;29;7442;-63
2022/08/03 08:48:30;;;;;;;;;;;;;;;29.88;39.07;94343.22;4932069;28;9694;-63
2022/08/03 08:50:59;;;;;;;;;;;;;;;29.89;39.10;94348.22;4947538;28;9066;-63
2022/08/03 08:53:31;;;;;;;;;;;;;;;29.91;39.57;94356.75;4947418;28;7152;-63
2022/08/03 08:56:24;;;;;;;;;;;;;;;29.91;38.77;94342.13;4934138;28;7778;-63
2022/08/03 08:59:00;;;;;;;;;;;;;;;29.91;39.54;94342.13;4952237;28;9102;-63
2022/08/03 09:01:31;;;;;;;;;;;;;;;29.91;39.42;94340.09;4936950;28;7373;-63
2022/08/03 09:03:57;;;;;;;;;;;;;;;29.91;39.09;94342.88;4934030;28;7210;-63
2022/08/03 09:06:38;;;;;;;;;;;;;;;29.91;39.20;94342.88;4937316;28;7040;-63
2022/08/03 09:09:24;;;;;;;;;;;;;;;29.92;39.56;94344.38;4935906;28;7247;-63
2022/08/03 09:11:50;;;;;;;;;;;;;;;29.92;39.31;94349.91;4973458;28;7077;-63
2022/08/03 09:14:16;;;;;;;;;;;;;;;29.91;39.17;94353.97;5071669;28;7281;-63
2022/08/03 09:16:59;;;;;;;;;;;;;;;29.92;39.03;94355.47;5071093;28;7938;-63
2022/08/03 09:19:43;;;;;;;;;;;;;;;29.92;39.07;94352.69;5053018;28;9301;-63
2022/08/03 09:22:32;;;;;;;;;;;;;;;29.93;38.63;94345.84;5066835;28;7394;-63
2022/08/03 09:25:02;;;;;;;;;;;;;;;29.93;39.68;94351.41;5052748;28;7268;-63
2022/08/03 09:27:46;;;;;;;;;;;;;;;29.93;39.08;94351.41;5051237;28;7725;-63
2022/08/03 09:30:16;;;;;;;;;;;;;;;29.94;38.96;94352.91;5071214;28;7347;-63
2022/08/03 09:32:46;;;;;;;;;;;;;;;29.94;39.12;94352.91;5044653;28;8450;-63
2022/08/03 09:35:15;;;;;;;;;;;;;;;29.95;39.33;94364.75;5048595;28;8983;-63
2022/08/03 09:37:41;;;;;;;;;;;;;;;29.95;38.99;94362.69;5066077;28;7161;-63
2022/08/03 09:40:07;;;;;;;;;;;;;;;29.97;38.80;94362.16;5040998;28;7199;-63
2022/08/03 09:42:36;;;;;;;;;;;;;;;29.96;39.73;94355.88;5040616;28;8096;-63
2022/08/03 09:45:07;;;;;;;;;;;;;;;29.97;39.20;94357.34;5066138;28;7259;-63
2022/08/03 09:47:36;;;;;;;;;;;;;;;29.97;39.16;94354.56;5068511;28;7382;-63
2022/08/03 09:50:10;;;;;;;;;;;;;;;30.00;38.56;94350.72;5046466;28;7431;-63
2022/08/03 09:52:39;;;;;;;;;;;;;;;29.99;40.21;94352.03;5053795;28;7847;-63
2022/08/03 09:55:14;;;;;;;;;;;;;;;30.00;38.89;94350.72;5069924;28;7228;-63
2022/08/03 09:58:04;;;;;;;;;;;;;;;30.01;39.18;94351.47;5052383;28;7062;-63
2022/08/03 10:00:30;;;;;;;;;;;;;;;30.02;38.96;94350.19;5051160;28;7030;-63
2022/08/03 10:03:04;;;;;;;;;;;;;;;30.03;39.75;94352.44;5051959;28;8720;-63
2022/08/03 10:05:32;;;;;;;;;;;;;;;30.02;39.46;94345.38;5063502;28;7236;-63
2022/08/03 10:08:00;;;;;;;;;;;;;;;30.03;39.39;94346.88;5047462;28;7174;-63
2022/08/03 10:10:42;;;;;;;;;;;;;;;30.07;38.70;94344.50;5048459;28;7143;-63
2022/08/03 10:13:12;;;;;;;;;;;;;;;30.06;38.89;94345.78;5065625;28;7080;-63
2022/08/03 10:15:42;;;;;;;;;;;;;;;30.07;39.19;94347.28;5040938;28;7004;-63
2022/08/03 10:18:26;;;;;;;;;;;;;;;30.09;38.79;94346.72;5071018;28;7361;-63
2022/08/03 10:21:16;;;;;;;;;;;;;;;30.09;38.75;94344.72;5067106;28;7249;-63
2022/08/03 10:23:57;;;;;;;;;;;;;;;30.09;38.65;94341.94;5047712;28;7352;-63
2022/08/03 10:26:33;;;;;;;;;;;;;;;30.09;39.41;94341.19;5069046;28;7244;-63
2022/08/03 10:29:03;;;;;;;;;;;;;;;30.10;39.10;94343.41;5053670;28;7224;-63
2022/08/03 10:31:57;;;;;;;;;;;;;;;30.09;39.67;94328.06;5071045;28;7444;-63
2022/08/03 10:34:28;;;;;;;;;;;;;;;30.10;39.63;94335.09;5069531;28;9524;-63
2022/08/03 10:36:59;;;;;;;;;;;;;;;30.12;38.88;94338.09;5068963;28;6940;-63
2022/08/03 10:39:52;;;;;;;;;;;;;;;30.14;39.50;94332.75;5055340;28;7193;-63
2022/08/03 10:42:24;;;;;;;;;;;;;;;30.15;38.84;94333.47;5073817;28;8308;-63
2022/08/03 10:45:13;;;;;;;;;;;;;;;30.17;39.02;94337.19;5073704;28;7008;-63
2022/08/03 10:47:58;;;;;;;;;;;;;;;30.18;38.67;94329.59;5055955;28;8204;-63
2022/08/03 10:50:31;;;;;;;;;;;;;;;30.17;38.86;94331.63;5056959;28;9047;-63
2022/08/03 10:53:37;;;;;;;;;;;;;;;30.18;38.81;94327.59;5046892;28;7270;-63
2022/08/03 10:58:52;;;;;;;;;;;;;;;30.18;38.38;94321.28;4965748;28;8913;-63
2022/08/03 11:01:54;;;;;;;;;;;;;;;30.17;38.60;94323.31;4955088;28;9571;-63
2022/08/03 11:04:25;;;;;;;;;;;;;;;30.16;38.92;94323.88;4956004;28;7242;-63
2022/08/03 11:07:17;;;;;;;;;;;;;;;30.17;39.45;94323.31;4971086;28;9915;-63
2022/08/03 11:09:55;;;;;;;;;;;;;;;30.17;39.25;94317.75;4963120;28;7198;-63
2022/08/03 11:12:32;;;;;;;;;;;;;;;30.18;39.17;94312.97;4964239;28;7275;-63
2022/08/03 11:15:08;;;;;;;;;;;;;;;30.18;39.53;94315.75;4954978;28;6997;-63
2022/08/03 11:18:09;;;;;;;;;;;;;;;30.20;39.54;94311.13;4956333;28;9154;-63
2022/08/03 11:20:54;;;;;;;;;;;;;;;30.20;39.49;94313.16;4954185;28;8226;-63
2022/08/03 11:23:44;;;;;;;;;;;;;;;30.24;39.24;94310.78;4964781;28;7299;-63
2022/08/03 11:26:14;;;;;;;;;;;;;;;30.24;39.50;94314.31;4963800;28;9117;-63
2022/08/03 11:28:49;;;;;;;;;;;;;;;30.23;38.93;94307.25;4941066;28;7197;-63
2022/08/03 11:31:22;;;;;;;;;;;;;;;30.26;39.03;94302.66;4998789;28;7042;-63
2022/08/03 11:34:07;;;;;;;;;;;;;;;30.27;39.22;94306.94;5052838;28;7238;-63
2022/08/03 11:37:11;;;;;;;;;;;;;;;30.27;39.62;94304.91;5053864;28;7658;-63
2022/08/03 11:39:45;;;;;;;;;;;;;;;30.28;38.65;94308.41;5048039;28;7266;-63
2022/08/03 11:42:23;;;;;;;;;;;;;;;30.28;38.59;94308.41;5046477;28;7310;-63
2022/08/03 11:45:00;;;;;;;;;;;;;;;30.29;39.12;94305.09;5054734;28;9209;-62
2022/08/03 11:47:55;;;;;;;;;;;;;;;30.29;39.44;94309.91;5073913;28;7000;-63
2022/08/03 11:50:24;;;;;;;;;;;;;;;30.31;39.71;94313.66;4963429;28;9031;-63
2022/08/03 11:53:06;;;;;;;;;;;;;;;30.30;38.97;94301.03;4964457;28;7275;-63
2022/08/03 11:55:47;;;;;;;;;;;;;;;30.30;38.53;94301.03;4954702;28;7317;-63
2022/08/03 11:58:28;;;;;;;;;;;;;;;30.31;39.21;94296.25;4955062;28;6989;-63
2022/08/03 12:01:30;;;;;;;;;;;;;;;30.32;39.04;94292.22;4964137;28;9145;-63
2022/08/03 12:04:18;;;;;;;;;;;;;;;30.34;39.23;94289.63;4952147;28;7054;-63
2022/08/03 12:07:09;;;;;;;;;;;;;;;30.35;39.27;94293.88;4962491;28;7626;-63
2022/08/03 12:09:40;;;;;;;;;;;;;;;30.33;39.43;94283.31;4964758;28;7264;-63
2022/08/03 12:12:06;;;;;;;;;;;;;;;30.34;39.29;94286.84;4966153;28;9358;-63
2022/08/03 12:14:32;;;;;;;;;;;;;;;30.31;39.16;94285.91;4955012;28;9084;-63
2022/08/03 12:17:09;;;;;;;;;;;;;;;30.33;38.67;94282.56;4946687;28;7154;-63
2022/08/03 12:19:41;;;;;;;;;;;;;;;30.31;39.22;94280.34;4948386;28;7316;-63
2022/08/03 12:22:09;;;;;;;;;;;;;;;30.33;38.93;94285.34;4942159;28;9512;-63
2022/08/03 12:24:42;;;;;;;;;;;;;;;30.33;39.01;94286.09;4957106;28;7508;-63
2022/08/03 12:27:11;;;;;;;;;;;;;;;30.34;38.39;94284.06;5014333;28;7326;-63
2022/08/03 12:29:37;;;;;;;;;;;;;;;30.34;39.51;94278.53;5049230;28;6983;-63
2022/08/03 12:32:03;;;;;;;;;;;;;;;30.35;38.57;94274.44;5042950;28;7011;-63
2022/08/03 12:34:47;;;;;;;;;;;;;;;30.34;39.39;94279.25;5069703;28;7225;-63
2022/08/03 12:37:21;;;;;;;;;;;;;;;30.36;38.99;94275.94;5044374;28;9034;-63
2022/08/03 12:39:53;;;;;;;;;;;;;;;30.36;39.64;94276.66;5048388;28;9119;-62
2022/08/03 12:42:32;;;;;;;;;;;;;;;30.37;39.42;94283.72;5066835;28;9114;-62
2022/08/03 12:44:58;;;;;;;;;;;;;;;30.38;39.39;94279.66;5041648;28;7257;-63
2022/08/03 12:47:51;;;;;;;;;;;;;;;30.38;39.61;94279.66;5042055;28;9153;-63
2022/08/03 12:51:13;;;;;;;;;;;;;;;30.38;38.90;94279.66;5073105;28;7308;-63
2022/08/03 12:54:08;;;;;;;;;;;;;;;30.41;39.59;94277.81;5050285;28;7188;-63
2022/08/03 12:57:11;;;;;;;;;;;;;;;30.42;39.47;94274.50;4971905;28;7033;-62
2022/08/03 12:59:54;;;;;;;;;;;;;;;30.41;39.50;94283.38;4971706;28;7234;-63
2022/08/03 13:02:23;;;;;;;;;;;;;;;30.39;39.63;94281.16;4947961;28;9467;-63
2022/08/03 13:05:10;;;;;;;;;;;;;;;30.40;39.13;94274.31;4955043;28;7420;-62
2022/08/03 13:08:21;;;;;;;;;;;;;;;30.42;38.88;94268.97;4954809;28;9160;-63
2022/08/03 13:10:47;;;;;;;;;;;;;;;30.44;39.54;94276.72;4976614;28;7498;-62
2022/08/03 13:13:16;;;;;;;;;;;;;;;30.43;38.57;94273.22;4963484;28;7014;-63
2022/08/03 13:15:41;;;;;;;;;;;;;;;30.44;38.41;94271.19;4973908;28;7943;-63
2022/08/03 13:18:07;;;;;;;;;;;;;;;30.46;38.47;94268.59;4958774;28;9121;-63
2022/08/03 13:20:35;;;;;;;;;;;;;;;30.46;39.67;94277.69;4958929;28;7218;-63
2022/08/03 13:23:04;;;;;;;;;;;;;;;30.47;38.98;94270.09;4945579;28;7222;-63
2022/08/03 13:25:36;;;;;;;;;;;;;;;30.46;38.55;94269.34;4963740;28;7303;-63
2022/08/03 13:28:03;;;;;;;;;;;;;;;30.47;39.52;94267.31;4974576;28;9307;-62
2022/08/03 13:30:30;;;;;;;;;;;;;;;30.46;39.42;94263.81;4958404;28;7234;-63
2022/08/03 13:32:59;;;;;;;;;;;;;;;30.50;38.77;94266.22;4973510;28;7654;-62
2022/08/03 13:35:25;;;;;;;;;;;;;;;30.51;38.88;94259.38;5006006;28;7155;-62
2022/08/03 13:37:51;;;;;;;;;;;;;;;30.50;38.44;94264.19;5007075;28;6997;-62
2022/08/03 13:40:17;;;;;;;;;;;;;;;30.52;39.25;94267.16;5023559;28;7688;-62
2022/08/03 13:42:43;;;;;;;;;;;;;;;30.53;39.15;94256.81;5008012;28;6916;-62
2022/08/03 13:45:11;;;;;;;;;;;;;;;30.52;38.50;94261.59;5036237;28;7242;-62